sensor_id;sensor_type;location;lat;lon;timestamp;P1;durP1;ratioP1;P2;durP2;ratioP2
83055;SDS011;72881;43.514;1.510;2024-02-26T00:01:25;2.17;;;0.95;;
83055;SDS011;72881;43.514;1.510;2024-02-26T00:03:51;1.30;;;0.77;;
83055;SDS011;72881;43.514;1.510;2024-02-26T00:06:17;2.03;;;0.90;;
83055;SDS011;72881;43.514;1.510;2024-02-26T00:08:43;1.90;;;0.93;;
83055;SDS011;72881;43.514;1.510;2024-02-26T00:11:09;1.48;;;0.75;;
83055;SDS011;72881;43.514;1.510;2024-02-26T00:13:35;1.80;;;0.70;;
83055;SDS011;72881;43.514;1.510;2024-02-26T00:16:01;1.67;;;0.82;;
83055;SDS011;72881;43.514;1.510;2024-02-26T00:18:26;1.55;;;0.80;;
83055;SDS011;72881;43.514;1.510;2024-02-26T00:20:52;2.65;;;0.85;;
83055;SDS011;72881;43.514;1.510;2024-02-26T00:23:17;2.65;;;0.70;;
83055;SDS011;72881;43.514;1.510;2024-02-26T00:25:42;2.25;;;0.90;;
83055;SDS011;72881;43.514;1.510;2024-02-26T00:28:10;2.35;;;0.85;;
83055;SDS011;72881;43.514;1.510;2024-02-26T00:30:35;1.80;;;0.80;;
83055;SDS011;72881;43.514;1.510;2024-02-26T00:33:01;1.77;;;0.80;;
83055;SDS011;72881;43.514;1.510;2024-02-26T00:35:26;2.85;;;0.90;;
83055;SDS011;72881;43.514;1.510;2024-02-26T00:37:52;2.30;;;0.77;;
83055;SDS011;72881;43.514;1.510;2024-02-26T00:40:17;2.50;;;0.70;;
83055;SDS011;72881;43.514;1.510;2024-02-26T00:42:43;1.88;;;0.70;;
83055;SDS011;72881;43.514;1.510;2024-02-26T00:45:11;1.70;;;0.90;;
83055;SDS011;72881;43.514;1.510;2024-02-26T00:47:37;2.00;;;0.70;;
83055;SDS011;72881;43.514;1.510;2024-02-26T00:50:02;1.80;;;0.80;;
83055;SDS011;72881;43.514;1.510;2024-02-26T00:52:28;1.80;;;0.80;;
83055;SDS011;72881;43.514;1.510;2024-02-26T00:54:53;1.55;;;0.80;;
83055;SDS011;72881;43.514;1.510;2024-02-26T00:57:18;2.72;;;0.70;;
83055;SDS011;72881;43.514;1.510;2024-02-26T00:59:44;1.88;;;0.80;;
83055;SDS011;72881;43.514;1.510;2024-02-26T01:02:09;1.48;;;0.70;;
83055;SDS011;72881;43.514;1.510;2024-02-26T01:04:35;1.80;;;0.63;;
83055;SDS011;72881;43.514;1.510;2024-02-26T01:07:00;1.70;;;0.60;;
83055;SDS011;72881;43.514;1.510;2024-02-26T01:09:25;1.65;;;0.73;;
83055;SDS011;72881;43.514;1.510;2024-02-26T01:11:51;1.33;;;0.60;;
83055;SDS011;72881;43.514;1.510;2024-02-26T01:14:16;1.52;;;0.70;;
83055;SDS011;72881;43.514;1.510;2024-02-26T01:16:41;1.98;;;0.90;;
83055;SDS011;72881;43.514;1.510;2024-02-26T01:19:07;1.45;;;0.70;;
83055;SDS011;72881;43.514;1.510;2024-02-26T01:21:32;2.22;;;0.70;;
83055;SDS011;72881;43.514;1.510;2024-02-26T01:23:58;2.33;;;0.70;;
83055;SDS011;72881;43.514;1.510;2024-02-26T01:26:23;1.50;;;0.80;;
83055;SDS011;72881;43.514;1.510;2024-02-26T01:28:48;2.08;;;0.70;;
83055;SDS011;72881;43.514;1.510;2024-02-26T01:31:14;1.75;;;0.60;;
83055;SDS011;72881;43.514;1.510;2024-02-26T01:33:39;1.50;;;0.70;;
83055;SDS011;72881;43.514;1.510;2024-02-26T01:36:05;1.38;;;0.60;;
83055;SDS011;72881;43.514;1.510;2024-02-26T01:38:31;1.27;;;0.55;;
83055;SDS011;72881;43.514;1.510;2024-02-26T01:40:56;1.15;;;0.60;;
83055;SDS011;72881;43.514;1.510;2024-02-26T01:43:22;1.65;;;0.68;;
83055;SDS011;72881;43.514;1.510;2024-02-26T01:45:47;2.00;;;0.70;;
83055;SDS011;72881;43.514;1.510;2024-02-26T01:48:13;2.05;;;0.82;;
83055;SDS011;72881;43.514;1.510;2024-02-26T01:50:38;1.45;;;0.65;;
83055;SDS011;72881;43.514;1.510;2024-02-26T01:53:05;1.65;;;0.63;;
83055;SDS011;72881;43.514;1.510;2024-02-26T01:55:31;1.40;;;0.50;;
83055;SDS011;72881;43.514;1.510;2024-02-26T01:57:57;3.05;;;0.82;;
83055;SDS011;72881;43.514;1.510;2024-02-26T02:00:22;1.63;;;0.80;;
83055;SDS011;72881;43.514;1.510;2024-02-26T02:02:48;1.75;;;0.70;;
83055;SDS011;72881;43.514;1.510;2024-02-26T02:05:15;2.17;;;0.73;;
83055;SDS011;72881;43.514;1.510;2024-02-26T02:07:43;2.20;;;0.70;;
83055;SDS011;72881;43.514;1.510;2024-02-26T02:10:10;2.05;;;0.82;;
83055;SDS011;72881;43.514;1.510;2024-02-26T02:12:35;1.90;;;0.73;;
83055;SDS011;72881;43.514;1.510;2024-02-26T02:15:03;1.17;;;0.57;;
83055;SDS011;72881;43.514;1.510;2024-02-26T02:17:30;0.90;;;0.50;;
83055;SDS011;72881;43.514;1.510;2024-02-26T02:19:55;2.47;;;0.70;;
83055;SDS011;72881;43.514;1.510;2024-02-26T02:22:21;1.88;;;0.65;;
83055;SDS011;72881;43.514;1.510;2024-02-26T02:24:46;1.90;;;0.70;;
83055;SDS011;72881;43.514;1.510;2024-02-26T02:27:12;1.52;;;0.80;;
83055;SDS011;72881;43.514;1.510;2024-02-26T02:29:37;1.67;;;0.63;;
83055;SDS011;72881;43.514;1.510;2024-02-26T02:32:03;1.90;;;0.52;;
83055;SDS011;72881;43.514;1.510;2024-02-26T02:34:28;2.42;;;0.80;;
83055;SDS011;72881;43.514;1.510;2024-02-26T02:36:54;1.83;;;0.70;;
83055;SDS011;72881;43.514;1.510;2024-02-26T02:39:20;1.77;;;0.80;;
83055;SDS011;72881;43.514;1.510;2024-02-26T02:41:46;1.60;;;0.75;;
83055;SDS011;72881;43.514;1.510;2024-02-26T02:44:11;1.90;;;0.60;;
83055;SDS011;72881;43.514;1.510;2024-02-26T02:46:37;2.10;;;0.65;;
83055;SDS011;72881;43.514;1.510;2024-02-26T02:49:03;1.95;;;0.80;;
83055;SDS011;72881;43.514;1.510;2024-02-26T02:51:28;1.08;;;0.50;;
83055;SDS011;72881;43.514;1.510;2024-02-26T02:53:53;1.63;;;0.60;;
83055;SDS011;72881;43.514;1.510;2024-02-26T02:56:19;2.08;;;0.70;;
83055;SDS011;72881;43.514;1.510;2024-02-26T02:58:44;1.90;;;0.73;;
83055;SDS011;72881;43.514;1.510;2024-02-26T03:01:10;1.38;;;0.60;;
83055;SDS011;72881;43.514;1.510;2024-02-26T03:03:35;2.42;;;0.80;;
83055;SDS011;72881;43.514;1.510;2024-02-26T03:06:02;1.60;;;0.60;;
83055;SDS011;72881;43.514;1.510;2024-02-26T03:08:28;1.95;;;0.60;;
83055;SDS011;72881;43.514;1.510;2024-02-26T03:10:53;2.40;;;0.80;;
83055;SDS011;72881;43.514;1.510;2024-02-26T03:13:19;2.38;;;0.70;;
83055;SDS011;72881;43.514;1.510;2024-02-26T03:15:44;1.58;;;0.55;;
83055;SDS011;72881;43.514;1.510;2024-02-26T03:18:10;1.75;;;0.70;;
83055;SDS011;72881;43.514;1.510;2024-02-26T03:20:35;1.85;;;0.60;;
83055;SDS011;72881;43.514;1.510;2024-02-26T03:23:02;1.42;;;0.50;;
83055;SDS011;72881;43.514;1.510;2024-02-26T03:25:27;2.53;;;0.82;;
83055;SDS011;72881;43.514;1.510;2024-02-26T03:27:53;1.55;;;0.60;;
83055;SDS011;72881;43.514;1.510;2024-02-26T03:30:18;1.88;;;0.80;;
83055;SDS011;72881;43.514;1.510;2024-02-26T03:32:43;2.83;;;0.75;;
83055;SDS011;72881;43.514;1.510;2024-02-26T03:35:09;1.40;;;0.63;;
83055;SDS011;72881;43.514;1.510;2024-02-26T03:37:34;1.95;;;0.50;;
83055;SDS011;72881;43.514;1.510;2024-02-26T03:40:00;1.70;;;0.60;;
83055;SDS011;72881;43.514;1.510;2024-02-26T03:42:26;1.75;;;0.63;;
83055;SDS011;72881;43.514;1.510;2024-02-26T03:44:52;1.73;;;0.70;;
83055;SDS011;72881;43.514;1.510;2024-02-26T03:47:17;1.33;;;0.50;;
83055;SDS011;72881;43.514;1.510;2024-02-26T03:49:42;2.13;;;0.70;;
83055;SDS011;72881;43.514;1.510;2024-02-26T03:52:08;1.73;;;0.60;;
83055;SDS011;72881;43.514;1.510;2024-02-26T03:54:33;2.13;;;0.70;;
83055;SDS011;72881;43.514;1.510;2024-02-26T03:56:58;1.75;;;0.80;;
83055;SDS011;72881;43.514;1.510;2024-02-26T03:59:24;2.92;;;0.70;;
83055;SDS011;72881;43.514;1.510;2024-02-26T04:01:50;2.00;;;0.60;;
83055;SDS011;72881;43.514;1.510;2024-02-26T04:04:16;2.00;;;0.65;;
83055;SDS011;72881;43.514;1.510;2024-02-26T04:06:45;1.92;;;0.60;;
83055;SDS011;72881;43.514;1.510;2024-02-26T04:11:36;2.13;;;0.50;;
83055;SDS011;72881;43.514;1.510;2024-02-26T04:14:02;2.38;;;0.70;;
83055;SDS011;72881;43.514;1.510;2024-02-26T04:16:28;1.80;;;0.60;;
83055;SDS011;72881;43.514;1.510;2024-02-26T04:18:53;2.30;;;0.60;;
83055;SDS011;72881;43.514;1.510;2024-02-26T04:21:19;2.83;;;0.80;;
83055;SDS011;72881;43.514;1.510;2024-02-26T04:23:45;1.15;;;0.50;;
83055;SDS011;72881;43.514;1.510;2024-02-26T04:26:10;1.75;;;0.60;;
83055;SDS011;72881;43.514;1.510;2024-02-26T04:28:36;2.60;;;0.80;;
83055;SDS011;72881;43.514;1.510;2024-02-26T04:31:01;1.58;;;0.60;;
83055;SDS011;72881;43.514;1.510;2024-02-26T04:33:27;1.42;;;0.50;;
83055;SDS011;72881;43.514;1.510;2024-02-26T04:35:52;1.20;;;0.50;;
83055;SDS011;72881;43.514;1.510;2024-02-26T04:38:18;2.25;;;0.80;;
83055;SDS011;72881;43.514;1.510;2024-02-26T04:40:44;1.30;;;0.50;;
83055;SDS011;72881;43.514;1.510;2024-02-26T04:43:09;2.55;;;0.60;;
83055;SDS011;72881;43.514;1.510;2024-02-26T04:45:35;1.67;;;0.60;;
83055;SDS011;72881;43.514;1.510;2024-02-26T04:48:00;2.22;;;0.68;;
83055;SDS011;72881;43.514;1.510;2024-02-26T04:50:25;2.85;;;0.70;;
83055;SDS011;72881;43.514;1.510;2024-02-26T04:52:51;1.85;;;0.68;;
83055;SDS011;72881;43.514;1.510;2024-02-26T04:55:16;1.90;;;0.60;;
83055;SDS011;72881;43.514;1.510;2024-02-26T04:57:42;1.48;;;0.60;;
83055;SDS011;72881;43.514;1.510;2024-02-26T05:00:07;4.85;;;0.70;;
83055;SDS011;72881;43.514;1.510;2024-02-26T05:02:34;2.38;;;0.70;;
83055;SDS011;72881;43.514;1.510;2024-02-26T05:05:03;2.13;;;0.70;;
83055;SDS011;72881;43.514;1.510;2024-02-26T05:07:33;1.23;;;0.50;;
83055;SDS011;72881;43.514;1.510;2024-02-26T05:09:59;1.92;;;0.63;;
83055;SDS011;72881;43.514;1.510;2024-02-26T05:12:24;1.38;;;0.43;;
83055;SDS011;72881;43.514;1.510;2024-02-26T05:14:50;2.40;;;0.70;;
83055;SDS011;72881;43.514;1.510;2024-02-26T05:17:15;1.75;;;0.60;;
83055;SDS011;72881;43.514;1.510;2024-02-26T05:19:40;1.95;;;0.68;;
83055;SDS011;72881;43.514;1.510;2024-02-26T05:22:06;2.40;;;0.70;;
83055;SDS011;72881;43.514;1.510;2024-02-26T05:24:31;1.65;;;0.50;;
83055;SDS011;72881;43.514;1.510;2024-02-26T05:26:57;3.08;;;0.65;;
83055;SDS011;72881;43.514;1.510;2024-02-26T05:29:22;1.52;;;0.50;;
83055;SDS011;72881;43.514;1.510;2024-02-26T05:31:47;1.85;;;0.60;;
83055;SDS011;72881;43.514;1.510;2024-02-26T05:34:13;1.48;;;0.50;;
83055;SDS011;72881;43.514;1.510;2024-02-26T05:36:38;3.78;;;0.60;;
83055;SDS011;72881;43.514;1.510;2024-02-26T05:39:04;1.80;;;0.50;;
83055;SDS011;72881;43.514;1.510;2024-02-26T05:41:29;1.67;;;0.60;;
83055;SDS011;72881;43.514;1.510;2024-02-26T05:43:55;1.90;;;0.40;;
83055;SDS011;72881;43.514;1.510;2024-02-26T05:46:21;0.90;;;0.47;;
83055;SDS011;72881;43.514;1.510;2024-02-26T05:48:47;1.67;;;0.52;;
83055;SDS011;72881;43.514;1.510;2024-02-26T05:51:14;1.88;;;0.52;;
83055;SDS011;72881;43.514;1.510;2024-02-26T05:53:40;1.45;;;0.47;;
83055;SDS011;72881;43.514;1.510;2024-02-26T05:56:06;1.27;;;0.40;;
83055;SDS011;72881;43.514;1.510;2024-02-26T05:58:31;1.33;;;0.45;;
83055;SDS011;72881;43.514;1.510;2024-02-26T06:00:56;2.05;;;0.70;;
83055;SDS011;72881;43.514;1.510;2024-02-26T06:03:22;1.88;;;0.50;;
83055;SDS011;72881;43.514;1.510;2024-02-26T06:05:47;1.90;;;0.50;;
83055;SDS011;72881;43.514;1.510;2024-02-26T06:08:13;1.92;;;0.65;;
83055;SDS011;72881;43.514;1.510;2024-02-26T06:10:39;1.60;;;0.60;;
83055;SDS011;72881;43.514;1.510;2024-02-26T06:13:04;1.38;;;0.50;;
83055;SDS011;72881;43.514;1.510;2024-02-26T06:15:30;1.88;;;0.70;;
83055;SDS011;72881;43.514;1.510;2024-02-26T06:17:55;3.22;;;0.50;;
83055;SDS011;72881;43.514;1.510;2024-02-26T06:20:20;1.45;;;0.43;;
83055;SDS011;72881;43.514;1.510;2024-02-26T06:22:46;2.63;;;0.40;;
83055;SDS011;72881;43.514;1.510;2024-02-26T06:25:11;1.38;;;0.50;;
83055;SDS011;72881;43.514;1.510;2024-02-26T06:27:36;1.88;;;0.50;;
83055;SDS011;72881;43.514;1.510;2024-02-26T06:30:02;1.98;;;0.57;;
83055;SDS011;72881;43.514;1.510;2024-02-26T06:32:28;1.58;;;0.45;;
83055;SDS011;72881;43.514;1.510;2024-02-26T06:34:54;1.65;;;0.55;;
83055;SDS011;72881;43.514;1.510;2024-02-26T06:37:20;2.42;;;0.75;;
83055;SDS011;72881;43.514;1.510;2024-02-26T06:39:45;1.02;;;0.40;;
83055;SDS011;72881;43.514;1.510;2024-02-26T06:42:11;2.10;;;0.68;;
83055;SDS011;72881;43.514;1.510;2024-02-26T06:44:36;1.77;;;0.50;;
83055;SDS011;72881;43.514;1.510;2024-02-26T06:47:02;1.45;;;0.47;;
83055;SDS011;72881;43.514;1.510;2024-02-26T06:49:27;2.00;;;0.50;;
83055;SDS011;72881;43.514;1.510;2024-02-26T06:51:53;1.15;;;0.45;;
83055;SDS011;72881;43.514;1.510;2024-02-26T06:54:18;1.10;;;0.40;;
83055;SDS011;72881;43.514;1.510;2024-02-26T06:56:43;3.08;;;0.40;;
83055;SDS011;72881;43.514;1.510;2024-02-26T06:59:09;1.10;;;0.40;;
83055;SDS011;72881;43.514;1.510;2024-02-26T07:01:34;1.17;;;0.40;;
83055;SDS011;72881;43.514;1.510;2024-02-26T07:04:00;1.70;;;0.50;;
83055;SDS011;72881;43.514;1.510;2024-02-26T07:06:25;2.40;;;0.47;;
83055;SDS011;72881;43.514;1.510;2024-02-26T07:08:52;2.80;;;0.40;;
83055;SDS011;72881;43.514;1.510;2024-02-26T07:11:17;1.35;;;0.60;;
83055;SDS011;72881;43.514;1.510;2024-02-26T07:13:44;1.13;;;0.40;;
83055;SDS011;72881;43.514;1.510;2024-02-26T07:16:14;1.63;;;0.50;;
83055;SDS011;72881;43.514;1.510;2024-02-26T07:18:40;1.38;;;0.50;;
83055;SDS011;72881;43.514;1.510;2024-02-26T07:21:05;1.25;;;0.40;;
83055;SDS011;72881;43.514;1.510;2024-02-26T07:23:31;1.45;;;0.40;;
83055;SDS011;72881;43.514;1.510;2024-02-26T07:25:56;1.98;;;0.30;;
83055;SDS011;72881;43.514;1.510;2024-02-26T07:28:22;1.70;;;0.50;;
83055;SDS011;72881;43.514;1.510;2024-02-26T07:30:47;1.30;;;0.40;;
83055;SDS011;72881;43.514;1.510;2024-02-26T07:33:12;1.20;;;0.40;;
83055;SDS011;72881;43.514;1.510;2024-02-26T07:35:38;1.75;;;0.40;;
83055;SDS011;72881;43.514;1.510;2024-02-26T07:38:04;1.88;;;0.40;;
83055;SDS011;72881;43.514;1.510;2024-02-26T07:40:30;1.30;;;0.40;;
83055;SDS011;72881;43.514;1.510;2024-02-26T07:42:55;7.75;;;0.50;;
83055;SDS011;72881;43.514;1.510;2024-02-26T07:45:21;1.63;;;0.50;;
83055;SDS011;72881;43.514;1.510;2024-02-26T07:47:46;1.02;;;0.40;;
83055;SDS011;72881;43.514;1.510;2024-02-26T07:50:12;1.08;;;0.32;;
83055;SDS011;72881;43.514;1.510;2024-02-26T07:52:38;2.53;;;0.55;;
83055;SDS011;72881;43.514;1.510;2024-02-26T07:55:04;2.92;;;0.47;;
83055;SDS011;72881;43.514;1.510;2024-02-26T07:57:30;1.88;;;0.50;;
83055;SDS011;72881;43.514;1.510;2024-02-26T07:59:56;1.85;;;0.40;;
83055;SDS011;72881;43.514;1.510;2024-02-26T08:02:21;1.45;;;0.40;;
83055;SDS011;72881;43.514;1.510;2024-02-26T08:04:47;1.20;;;0.40;;
83055;SDS011;72881;43.514;1.510;2024-02-26T08:07:12;1.58;;;0.35;;
83055;SDS011;72881;43.514;1.510;2024-02-26T08:09:37;1.50;;;0.32;;
83055;SDS011;72881;43.514;1.510;2024-02-26T08:12:06;2.85;;;0.60;;
83055;SDS011;72881;43.514;1.510;2024-02-26T08:14:31;3.85;;;0.45;;
83055;SDS011;72881;43.514;1.510;2024-02-26T08:16:57;1.45;;;0.40;;
83055;SDS011;72881;43.514;1.510;2024-02-26T08:19:23;1.40;;;0.30;;
83055;SDS011;72881;43.514;1.510;2024-02-26T08:21:49;3.33;;;0.30;;
83055;SDS011;72881;43.514;1.510;2024-02-26T08:24:14;1.42;;;0.32;;
83055;SDS011;72881;43.514;1.510;2024-02-26T08:26:40;1.05;;;0.50;;
83055;SDS011;72881;43.514;1.510;2024-02-26T08:29:05;0.68;;;0.22;;
83055;SDS011;72881;43.514;1.510;2024-02-26T08:31:30;1.35;;;0.40;;
83055;SDS011;72881;43.514;1.510;2024-02-26T08:33:56;2.65;;;0.50;;
83055;SDS011;72881;43.514;1.510;2024-02-26T08:36:22;1.20;;;0.60;;
83055;SDS011;72881;43.514;1.510;2024-02-26T08:38:47;2.17;;;0.40;;
83055;SDS011;72881;43.514;1.510;2024-02-26T08:41:13;2.67;;;0.40;;
83055;SDS011;72881;43.514;1.510;2024-02-26T08:43:38;1.90;;;0.43;;
83055;SDS011;72881;43.514;1.510;2024-02-26T08:46:03;2.88;;;0.50;;
83055;SDS011;72881;43.514;1.510;2024-02-26T08:48:29;2.63;;;0.40;;
83055;SDS011;72881;43.514;1.510;2024-02-26T08:50:54;2.05;;;0.40;;
83055;SDS011;72881;43.514;1.510;2024-02-26T08:53:20;1.52;;;0.50;;
83055;SDS011;72881;43.514;1.510;2024-02-26T08:55:46;2.33;;;0.50;;
83055;SDS011;72881;43.514;1.510;2024-02-26T08:58:11;2.97;;;0.50;;
83055;SDS011;72881;43.514;1.510;2024-02-26T09:00:37;0.90;;;0.50;;
83055;SDS011;72881;43.514;1.510;2024-02-26T09:03:02;2.20;;;0.50;;
83055;SDS011;72881;43.514;1.510;2024-02-26T09:05:28;6.03;;;0.70;;
83055;SDS011;72881;43.514;1.510;2024-02-26T09:07:53;3.03;;;0.50;;
83055;SDS011;72881;43.514;1.510;2024-02-26T09:10:19;2.15;;;0.50;;
83055;SDS011;72881;43.514;1.510;2024-02-26T09:12:44;1.88;;;0.50;;
83055;SDS011;72881;43.514;1.510;2024-02-26T09:15:09;2.60;;;0.60;;
83055;SDS011;72881;43.514;1.510;2024-02-26T09:17:35;5.35;;;0.55;;
83055;SDS011;72881;43.514;1.510;2024-02-26T09:20:01;3.67;;;0.70;;
83055;SDS011;72881;43.514;1.510;2024-02-26T09:22:27;4.40;;;1.08;;
83055;SDS011;72881;43.514;1.510;2024-02-26T09:24:53;3.88;;;0.75;;
83055;SDS011;72881;43.514;1.510;2024-02-26T09:27:18;5.22;;;0.90;;
83055;SDS011;72881;43.514;1.510;2024-02-26T09:29:44;5.53;;;1.05;;
83055;SDS011;72881;43.514;1.510;2024-02-26T09:32:09;4.82;;;0.90;;
83055;SDS011;72881;43.514;1.510;2024-02-26T09:34:35;3.47;;;0.82;;
83055;SDS011;72881;43.514;1.510;2024-02-26T09:37:00;2.55;;;0.82;;
83055;SDS011;72881;43.514;1.510;2024-02-26T09:39:26;5.03;;;1.08;;
83055;SDS011;72881;43.514;1.510;2024-02-26T09:41:53;2.72;;;1.00;;
83055;SDS011;72881;43.514;1.510;2024-02-26T09:44:19;4.28;;;1.10;;
83055;SDS011;72881;43.514;1.510;2024-02-26T09:46:46;6.55;;;1.33;;
83055;SDS011;72881;43.514;1.510;2024-02-26T09:49:12;5.18;;;1.35;;
83055;SDS011;72881;43.514;1.510;2024-02-26T09:51:39;5.18;;;1.38;;
83055;SDS011;72881;43.514;1.510;2024-02-26T09:54:04;4.97;;;1.73;;
83055;SDS011;72881;43.514;1.510;2024-02-26T09:56:32;6.07;;;1.77;;
83055;SDS011;72881;43.514;1.510;2024-02-26T09:58:58;5.80;;;1.90;;
83055;SDS011;72881;43.514;1.510;2024-02-26T10:01:25;4.53;;;1.67;;
83055;SDS011;72881;43.514;1.510;2024-02-26T10:03:52;4.25;;;1.60;;
83055;SDS011;72881;43.514;1.510;2024-02-26T10:06:20;5.18;;;1.60;;
83055;SDS011;72881;43.514;1.510;2024-02-26T10:08:46;4.38;;;1.65;;
83055;SDS011;72881;43.514;1.510;2024-02-26T10:11:12;6.60;;;1.70;;
83055;SDS011;72881;43.514;1.510;2024-02-26T10:13:38;5.05;;;1.85;;
83055;SDS011;72881;43.514;1.510;2024-02-26T10:16:03;4.93;;;1.55;;
83055;SDS011;72881;43.514;1.510;2024-02-26T10:18:50;7.47;;;1.98;;
83055;SDS011;72881;43.514;1.510;2024-02-26T10:21:21;6.53;;;2.13;;
83055;SDS011;72881;43.514;1.510;2024-02-26T10:23:47;6.78;;;2.78;;
83055;SDS011;72881;43.514;1.510;2024-02-26T10:26:14;6.05;;;2.05;;
83055;SDS011;72881;43.514;1.510;2024-02-26T10:28:41;6.03;;;2.22;;
83055;SDS011;72881;43.514;1.510;2024-02-26T10:31:07;7.53;;;2.67;;
83055;SDS011;72881;43.514;1.510;2024-02-26T10:33:33;10.02;;;4.07;;
83055;SDS011;72881;43.514;1.510;2024-02-26T10:36:01;9.70;;;4.10;;
83055;SDS011;72881;43.514;1.510;2024-02-26T10:38:26;11.13;;;4.03;;
83055;SDS011;72881;43.514;1.510;2024-02-26T10:40:51;9.07;;;3.42;;
83055;SDS011;72881;43.514;1.510;2024-02-26T10:43:17;6.35;;;3.10;;
83055;SDS011;72881;43.514;1.510;2024-02-26T10:45:43;10.10;;;3.38;;
83055;SDS011;72881;43.514;1.510;2024-02-26T10:48:09;8.18;;;3.33;;
83055;SDS011;72881;43.514;1.510;2024-02-26T10:50:36;7.45;;;3.00;;
83055;SDS011;72881;43.514;1.510;2024-02-26T10:53:01;9.77;;;3.28;;
83055;SDS011;72881;43.514;1.510;2024-02-26T10:55:28;8.07;;;3.30;;
83055;SDS011;72881;43.514;1.510;2024-02-26T10:57:53;8.23;;;3.53;;
83055;SDS011;72881;43.514;1.510;2024-02-26T11:03:22;8.85;;;3.22;;
83055;SDS011;72881;43.514;1.510;2024-02-26T11:06:03;8.50;;;3.38;;
83055;SDS011;72881;43.514;1.510;2024-02-26T11:10:57;7.85;;;2.67;;
83055;SDS011;72881;43.514;1.510;2024-02-26T11:13:23;10.82;;;3.30;;
83055;SDS011;72881;43.514;1.510;2024-02-26T11:15:52;7.18;;;2.95;;
83055;SDS011;72881;43.514;1.510;2024-02-26T11:18:19;8.55;;;3.22;;
83055;SDS011;72881;43.514;1.510;2024-02-26T11:20:46;7.15;;;2.42;;
83055;SDS011;72881;43.514;1.510;2024-02-26T11:23:13;7.18;;;2.53;;
83055;SDS011;72881;43.514;1.510;2024-02-26T11:25:38;6.00;;;2.40;;
83055;SDS011;72881;43.514;1.510;2024-02-26T11:28:13;7.20;;;2.50;;
83055;SDS011;72881;43.514;1.510;2024-02-26T11:30:42;8.48;;;2.38;;
83055;SDS011;72881;43.514;1.510;2024-02-26T11:36:16;6.15;;;2.40;;
83055;SDS011;72881;43.514;1.510;2024-02-26T11:38:43;5.05;;;2.13;;
83055;SDS011;72881;43.514;1.510;2024-02-26T11:41:09;5.32;;;2.15;;
83055;SDS011;72881;43.514;1.510;2024-02-26T11:43:50;5.60;;;2.05;;
83055;SDS011;72881;43.514;1.510;2024-02-26T11:46:30;8.23;;;2.17;;
83055;SDS011;72881;43.514;1.510;2024-02-26T11:51:52;7.00;;;2.05;;
83055;SDS011;72881;43.514;1.510;2024-02-26T11:54:55;5.50;;;2.10;;
83055;SDS011;72881;43.514;1.510;2024-02-26T11:59:46;8.20;;;2.00;;
83055;SDS011;72881;43.514;1.510;2024-02-26T12:02:12;6.72;;;2.30;;
83055;SDS011;72881;43.514;1.510;2024-02-26T12:05:14;5.88;;;2.00;;
83055;SDS011;72881;43.514;1.510;2024-02-26T12:07:48;6.13;;;1.98;;
83055;SDS011;72881;43.514;1.510;2024-02-26T12:10:27;8.73;;;2.03;;
83055;SDS011;72881;43.514;1.510;2024-02-26T12:12:59;4.60;;;1.88;;
83055;SDS011;72881;43.514;1.510;2024-02-26T12:15:37;5.00;;;1.90;;
83055;SDS011;72881;43.514;1.510;2024-02-26T12:18:04;8.70;;;2.20;;
83055;SDS011;72881;43.514;1.510;2024-02-26T12:20:31;4.47;;;1.80;;
83055;SDS011;72881;43.514;1.510;2024-02-26T12:26:06;9.32;;;2.35;;
83055;SDS011;72881;43.514;1.510;2024-02-26T12:31:50;6.85;;;1.85;;
83055;SDS011;72881;43.514;1.510;2024-02-26T12:34:15;4.30;;;1.77;;
83055;SDS011;72881;43.514;1.510;2024-02-26T12:36:41;4.63;;;1.65;;
83055;SDS011;72881;43.514;1.510;2024-02-26T12:39:07;5.90;;;1.73;;
83055;SDS011;72881;43.514;1.510;2024-02-26T12:41:33;7.05;;;1.90;;
83055;SDS011;72881;43.514;1.510;2024-02-26T12:46:59;4.05;;;1.42;;
83055;SDS011;72881;43.514;1.510;2024-02-26T12:49:33;4.50;;;1.55;;
83055;SDS011;72881;43.514;1.510;2024-02-26T12:52:08;4.22;;;1.80;;
83055;SDS011;72881;43.514;1.510;2024-02-26T12:54:33;5.15;;;1.63;;
83055;SDS011;72881;43.514;1.510;2024-02-26T12:57:00;5.00;;;1.60;;
83055;SDS011;72881;43.514;1.510;2024-02-26T13:02:36;4.53;;;1.38;;
83055;SDS011;72881;43.514;1.510;2024-02-26T13:05:05;7.05;;;1.42;;
83055;SDS011;72881;43.514;1.510;2024-02-26T13:14:23;4.25;;;1.35;;
83055;SDS011;72881;43.514;1.510;2024-02-26T13:16:57;3.40;;;1.23;;
83055;SDS011;72881;43.514;1.510;2024-02-26T13:19:23;3.17;;;1.17;;
83055;SDS011;72881;43.514;1.510;2024-02-26T13:21:49;3.00;;;1.10;;
83055;SDS011;72881;43.514;1.510;2024-02-26T13:24:14;5.18;;;1.33;;
83055;SDS011;72881;43.514;1.510;2024-02-26T13:26:40;2.95;;;1.05;;
83055;SDS011;72881;43.514;1.510;2024-02-26T13:29:05;5.63;;;1.60;;
83055;SDS011;72881;43.514;1.510;2024-02-26T13:31:31;2.45;;;1.00;;
83055;SDS011;72881;43.514;1.510;2024-02-26T13:33:56;3.33;;;1.40;;
83055;SDS011;72881;43.514;1.510;2024-02-26T13:36:34;4.85;;;1.48;;
83055;SDS011;72881;43.514;1.510;2024-02-26T13:39:00;3.80;;;1.02;;
83055;SDS011;72881;43.514;1.510;2024-02-26T13:41:26;4.13;;;1.40;;
83055;SDS011;72881;43.514;1.510;2024-02-26T13:43:52;6.97;;;1.23;;
83055;SDS011;72881;43.514;1.510;2024-02-26T13:46:17;4.90;;;1.00;;
83055;SDS011;72881;43.514;1.510;2024-02-26T13:48:43;6.90;;;1.20;;
83055;SDS011;72881;43.514;1.510;2024-02-26T13:54:30;4.00;;;1.15;;
83055;SDS011;72881;43.514;1.510;2024-02-26T13:56:56;2.83;;;1.30;;
83055;SDS011;72881;43.514;1.510;2024-02-26T13:59:21;2.25;;;0.88;;
83055;SDS011;72881;43.514;1.510;2024-02-26T14:01:47;2.10;;;0.93;;
83055;SDS011;72881;43.514;1.510;2024-02-26T14:04:12;2.75;;;1.00;;
83055;SDS011;72881;43.514;1.510;2024-02-26T14:06:38;2.25;;;0.80;;
83055;SDS011;72881;43.514;1.510;2024-02-26T14:09:04;2.78;;;0.90;;
83055;SDS011;72881;43.514;1.510;2024-02-26T14:11:30;3.10;;;1.00;;
83055;SDS011;72881;43.514;1.510;2024-02-26T14:13:56;2.42;;;0.90;;
83055;SDS011;72881;43.514;1.510;2024-02-26T14:16:21;2.50;;;1.10;;
83055;SDS011;72881;43.514;1.510;2024-02-26T14:25:36;3.88;;;0.93;;
83055;SDS011;72881;43.514;1.510;2024-02-26T14:28:02;2.70;;;0.90;;
83055;SDS011;72881;43.514;1.510;2024-02-26T14:30:28;6.70;;;0.93;;
83055;SDS011;72881;43.514;1.510;2024-02-26T14:32:53;2.08;;;1.00;;
83055;SDS011;72881;43.514;1.510;2024-02-26T14:35:19;3.13;;;0.90;;
83055;SDS011;72881;43.514;1.510;2024-02-26T14:37:45;2.80;;;0.73;;
83055;SDS011;72881;43.514;1.510;2024-02-26T14:42:39;2.45;;;0.80;;
83055;SDS011;72881;43.514;1.510;2024-02-26T14:45:05;3.25;;;0.80;;
83055;SDS011;72881;43.514;1.510;2024-02-26T14:47:34;2.47;;;0.80;;
83055;SDS011;72881;43.514;1.510;2024-02-26T14:50:01;3.08;;;0.80;;
83055;SDS011;72881;43.514;1.510;2024-02-26T14:52:26;2.38;;;0.80;;
83055;SDS011;72881;43.514;1.510;2024-02-26T14:54:52;4.50;;;0.80;;
83055;SDS011;72881;43.514;1.510;2024-02-26T14:57:18;3.33;;;0.80;;
83055;SDS011;72881;43.514;1.510;2024-02-26T14:59:43;3.72;;;0.80;;
83055;SDS011;72881;43.514;1.510;2024-02-26T15:02:09;2.30;;;0.82;;
83055;SDS011;72881;43.514;1.510;2024-02-26T15:04:38;3.85;;;0.75;;
83055;SDS011;72881;43.514;1.510;2024-02-26T15:07:03;2.83;;;0.60;;
83055;SDS011;72881;43.514;1.510;2024-02-26T15:09:29;4.00;;;0.80;;
83055;SDS011;72881;43.514;1.510;2024-02-26T15:11:54;4.75;;;0.80;;
83055;SDS011;72881;43.514;1.510;2024-02-26T15:14:22;1.92;;;0.88;;
83055;SDS011;72881;43.514;1.510;2024-02-26T15:16:48;2.15;;;0.60;;
83055;SDS011;72881;43.514;1.510;2024-02-26T15:19:13;3.05;;;0.90;;
83055;SDS011;72881;43.514;1.510;2024-02-26T15:25:00;2.13;;;0.70;;
83055;SDS011;72881;43.514;1.510;2024-02-26T15:27:26;2.25;;;0.68;;
83055;SDS011;72881;43.514;1.510;2024-02-26T15:30:07;2.05;;;0.68;;
83055;SDS011;72881;43.514;1.510;2024-02-26T15:32:33;2.35;;;0.70;;
83055;SDS011;72881;43.514;1.510;2024-02-26T15:34:58;1.50;;;0.52;;